Adel, GA

2:15 AM EST on November 23, 2014 (GMT -0500)
Adel, Georgia | Change Station
CLOSE
Current Station
Personal Weather Station
Location: Adel, GA
Elevation: 253 ft
Nearby Weather Stations

Elev 253 ft 31.14 °N, 83.40 °W | Updated 2 seconds ago

Rain
Rain
61.0 °F
Feels Like 61.0 °F
N
6.9
Wind Variable Wind from NE
Gusts 6.9 mph

Today
High -- | Low -- °F
--% Chance of Precip.
Yesterday
High -- | Low -- °F
Precip. -- in
7:07 AM 5:32 PM
New Moon, 1% visible
Pressure 30.06 in
Visibility 7.0 miles
Clouds Mostly Cloudy 300 ft
Overcast 900 ft
Dew Point 47 °F
Humidity 59%
Rainfall 0.66 in
Snow Depth Not available.
UV 0 out of 12
Pollen 1.40 out of 12
Air Quality Not available.
Flu Activity Not available.
SPECI KVAD 230712Z AUTO 08006KT 7SM R36/5500FT -RA BKN003 OVC009 16/15 A3006 RMK AO2

More Conditions Fewer Conditions

Pressure 30.06 in
Visibility 7.0 miles
Clouds Mostly Cloudy 300 ft
Overcast 900 ft
Dew Point 47 °F
Humidity 59%
Rainfall 0.66 in
Snow Depth Not available.
UV 0 out of 12
Pollen 1.40 out of 12
Air Quality Not available.
Flu Activity Not available.
SPECI KVAD 230712Z AUTO 08006KT 7SM R36/5500FT -RA BKN003 OVC009 16/15 A3006 RMK AO2

More Conditions Fewer Conditions

10-Day Weather Forecast

Almanac

Astronomy

Nov. 23, 2014 Rise Set
Actual Time
Civil Twilight
Nautical Twilight
Astronomical Twilight
Moon
Length of Visible Light
Length of Day
Tomorrow will be .
, % of the Moon is Illuminated

Today's Extremes

State Highs State Lows

Community

WunderPhotos

Upload Photos

1,773,024 photos uploaded!

WunderBlogs® & News

Nearby

Air Quality

  Air Quality AQ Index Pollutant
Not available.

Snow Depth

Station Depth Elevation

Earthquake Activity

City Distance Mag. Time & Date
Minimum magnitude displayed is 2.5.

Coastal Water Temperatures

Place Temperature

Nearby Weather Stations